Time;durP1;ratioP1;P1;durP2;ratioP2;P2;SDS_P1;SDS_P2;PMS_P1;PMS_P2;Temp;Humidity;BMP_temperature;BMP_pressure;BME280_temperature;BME280_humidity;BME280_pressure;Samples;Min_cycle;Max_cycle;Signal;HPM_P1;HPM_P2
2022/12/28 00:02:09;;;;;;;;;;;;;;;11.48;53.09;100713.78;4995564;28;20466;-89
2022/12/28 00:04:35;;;;;;;;;;;;;;;11.53;52.82;100705.84;4995299;28;20349;-90
2022/12/28 00:10:04;;;;;;;;;;;;;;;11.46;53.51;100713.78;4995296;28;19916;-89
2022/12/28 00:15:32;;;;;;;;;;;;;;;11.37;53.17;100711.16;4995307;28;19917;-89
2022/12/28 00:17:57;;;;;;;;;;;;;;;11.43;53.14;100710.25;4994894;28;19914;-90
2022/12/28 00:20:22;;;;;;;;;;;;;;;11.52;52.84;100717.28;4995281;28;19914;-89
2022/12/28 00:22:48;;;;;;;;;;;;;;;11.53;52.28;100717.28;4995410;28;19918;-89
2022/12/28 00:25:13;;;;;;;;;;;;;;;11.50;52.28;100712.00;4994977;28;20291;-89
2022/12/28 00:27:38;;;;;;;;;;;;;;;11.43;51.78;100726.09;4995128;28;20295;-89
2022/12/28 00:30:04;;;;;;;;;;;;;;;11.43;51.86;100723.47;4995395;28;19914;-89
2022/12/28 00:32:29;;;;;;;;;;;;;;;11.57;51.12;100716.41;4994991;28;19921;-90
2022/12/28 00:34:54;;;;;;;;;;;;;;;11.59;51.25;100717.25;4995453;28;19921;-91
2022/12/28 00:37:20;;;;;;;;;;;;;;;11.70;50.63;100719.00;4994958;28;19914;-92
2022/12/28 00:39:46;;;;;;;;;;;;;;;11.70;50.45;100724.28;4993361;28;20344;-92
2022/12/28 00:42:11;;;;;;;;;;;;;;;11.60;50.51;100729.59;4994703;28;19972;-91
2022/12/28 00:44:36;;;;;;;;;;;;;;;11.51;49.88;100723.44;4994815;28;19910;-90
2022/12/28 00:47:02;;;;;;;;;;;;;;;11.59;50.08;100727.84;4994689;28;19914;-90
2022/12/28 00:49:27;;;;;;;;;;;;;;;11.65;49.64;100726.94;4994756;28;19914;-89
2022/12/28 00:51:52;;;;;;;;;;;;;;;11.61;49.69;100731.34;4995105;28;19918;-90
2022/12/28 00:54:18;;;;;;;;;;;;;;;11.60;49.52;100734.91;4994283;28;20012;-89
2022/12/28 00:56:43;;;;;;;;;;;;;;;11.62;50.08;100740.19;4994594;28;20009;-91
2022/12/28 00:59:09;;;;;;;;;;;;;;;11.85;48.97;100747.13;4994472;28;20000;-92
2022/12/28 01:01:35;;;;;;;;;;;;;;;11.78;48.58;100741.00;4994675;28;19914;-92
2022/12/28 01:04:00;;;;;;;;;;;;;;;11.65;49.20;100746.31;4994489;28;19937;-93
2022/12/28 01:06:27;;;;;;;;;;;;;;;11.73;49.00;100738.38;4994510;28;19964;-91
2022/12/28 01:11:55;;;;;;;;;;;;;;;11.71;48.33;100741.88;4994346;28;20303;-91
2022/12/28 01:14:20;;;;;;;;;;;;;;;11.70;48.40;100748.09;4994408;28;19910;-92
2022/12/28 01:16:45;;;;;;;;;;;;;;;11.59;48.38;100746.34;4994072;28;19914;-92
2022/12/28 01:19:13;;;;;;;;;;;;;;;11.59;47.62;100737.53;4992824;28;19917;-91
2022/12/28 01:21:39;;;;;;;;;;;;;;;11.77;47.70;100745.41;4992194;28;20279;-93
2022/12/28 01:24:06;;;;;;;;;;;;;;;11.71;47.71;100744.53;4994467;28;19920;-94
2022/12/28 01:26:33;;;;;;;;;;;;;;;11.69;47.28;100747.19;4993321;28;19910;-95
2022/12/28 01:28:58;;;;;;;;;;;;;;;11.65;47.37;100743.69;4993478;28;20080;-94
2022/12/28 01:31:24;;;;;;;;;;;;;;;11.69;47.15;100755.09;4993149;28;20416;-95
2022/12/28 01:33:49;;;;;;;;;;;;;;;11.75;47.19;100751.59;4992869;28;20369;-95
2022/12/28 01:36:16;;;;;;;;;;;;;;;11.79;47.01;100746.28;4994238;28;19945;-94
2022/12/28 01:38:42;;;;;;;;;;;;;;;11.90;46.44;100740.09;4992802;28;19913;-94
2022/12/28 01:41:08;;;;;;;;;;;;;;;11.80;46.38;100734.84;4992397;28;20339;-94
2022/12/28 01:43:38;;;;;;;;;;;;;;;11.71;46.82;100737.50;5009005;28;19913;-93
2022/12/28 01:46:03;;;;;;;;;;;;;;;11.76;46.90;100737.50;5009042;28;19976;-94
2022/12/28 01:51:43;;;;;;;;;;;;;;;11.70;46.39;100734.88;4994105;28;20328;-94
2022/12/28 01:54:09;;;;;;;;;;;;;;;11.74;46.70;100726.03;5008869;28;19957;-94
2022/12/28 01:56:35;;;;;;;;;;;;;;;11.59;46.75;100730.47;4992491;28;19953;-94
2022/12/28 02:02:04;;;;;;;;;;;;;;;11.69;46.68;100733.97;4993823;28;20299;-94
2022/12/28 02:04:29;;;;;;;;;;;;;;;11.61;47.01;100734.00;4993543;28;19914;-95
2022/12/28 02:06:55;;;;;;;;;;;;;;;11.64;46.69;100725.19;4992140;28;19921;-93
2022/12/28 02:12:23;;;;;;;;;;;;;;;11.45;46.81;100732.28;4993321;28;19916;-92
2022/12/28 02:14:50;;;;;;;;;;;;;;;11.46;46.34;100736.66;4992599;28;19918;-91
2022/12/28 02:17:16;;;;;;;;;;;;;;;11.48;45.60;100732.28;4993339;28;19914;-90
2022/12/28 02:19:46;;;;;;;;;;;;;;;11.51;46.06;100741.94;4993229;28;19925;-91
2022/12/28 02:22:30;;;;;;;;;;;;;;;11.41;46.09;100735.81;4993450;28;19918;-91
2022/12/28 02:24:58;;;;;;;;;;;;;;;11.44;45.69;100738.44;4993233;28;19920;-91
2022/12/28 02:27:29;;;;;;;;;;;;;;;11.36;45.46;100737.59;4991681;28;19914;-91
2022/12/28 02:30:00;;;;;;;;;;;;;;;11.39;45.50;100729.66;4992875;28;19917;-91
2022/12/28 02:35:47;;;;;;;;;;;;;;;11.27;45.20;100726.13;4993369;28;20064;-91
2022/12/28 02:38:15;;;;;;;;;;;;;;;11.38;45.39;100727.88;4993155;28;20000;-92
2022/12/28 02:41:01;;;;;;;;;;;;;;;11.25;45.38;100721.75;4991880;28;19922;-91
2022/12/28 02:43:26;;;;;;;;;;;;;;;11.22;45.25;100722.63;4991028;28;19913;-92
2022/12/28 02:51:40;;;;;;;;;;;;;;;11.24;45.50;100712.06;4993042;28;20012;-93
2022/12/28 02:56:06;;;;;;;;;;;;;;;11.20;45.54;100720.84;4992845;28;19914;-93
2022/12/28 02:57:21;;;;;;;;;;;;;;;11.09;45.62;100712.94;4992930;28;19914;-94
2022/12/28 03:00:10;;;;;;;;;;;;;;;11.23;45.29;100719.13;4991814;28;19918;-93
2022/12/28 03:08:50;;;;;;;;;;;;;;;11.12;45.14;100710.31;5004635;28;19941;-91
2022/12/28 03:11:21;;;;;;;;;;;;;;;11.08;44.89;100704.16;5022143;28;19906;-92
2022/12/28 03:14:06;;;;;;;;;;;;;;;11.15;44.48;100717.34;5002847;28;19918;-92
2022/12/28 03:33:02;;;;;;;;;;;;;;;11.29;43.55;100734.94;4996135;28;19920;-93
2022/12/28 03:35:33;;;;;;;;;;;;;;;11.40;43.50;100737.56;4995073;28;19913;-93
2022/12/28 03:38:02;;;;;;;;;;;;;;;11.28;44.02;100730.53;4996315;28;19975;-93
2022/12/28 03:40:57;;;;;;;;;;;;;;;11.23;43.92;100734.97;4995259;28;20363;-94
2022/12/28 03:43:39;;;;;;;;;;;;;;;11.11;43.90;100737.63;4985863;28;19961;-92
2022/12/28 03:46:13;;;;;;;;;;;;;;;11.27;44.20;100739.34;4994663;28;19920;-92
2022/12/28 03:48:41;;;;;;;;;;;;;;;11.50;43.50;100737.56;4994474;28;19914;-89
2022/12/28 03:51:07;;;;;;;;;;;;;;;11.39;43.52;100742.88;4994590;28;20352;-90
2022/12/28 03:53:37;;;;;;;;;;;;;;;11.10;44.01;100743.75;5027265;28;19925;-90
2022/12/28 03:59:05;;;;;;;;;;;;;;;11.04;43.78;100741.13;4995693;28;20048;-90
2022/12/28 04:01:30;;;;;;;;;;;;;;;11.17;43.71;100753.44;5010021;28;20401;-90
2022/12/28 04:03:56;;;;;;;;;;;;;;;11.04;43.89;100743.75;5010655;28;19963;-89
2022/12/28 04:06:21;;;;;;;;;;;;;;;11.09;43.85;100747.28;4995617;28;19914;-91
2022/12/28 04:11:49;;;;;;;;;;;;;;;11.05;44.28;100745.53;4995431;28;19924;-92
2022/12/28 04:14:14;;;;;;;;;;;;;;;11.15;43.92;100746.41;4995395;28;19914;-94
2022/12/28 04:16:41;;;;;;;;;;;;;;;11.09;43.73;100748.19;4995099;28;20300;-96
2022/12/28 04:19:06;;;;;;;;;;;;;;;11.23;43.23;100748.16;5011196;28;19914;-96
2022/12/28 04:21:31;;;;;;;;;;;;;;;11.20;43.22;100756.09;5011139;28;20060;-95
2022/12/28 04:23:57;;;;;;;;;;;;;;;11.20;43.23;100755.19;4994434;28;19924;-95
2022/12/28 04:26:22;;;;;;;;;;;;;;;11.25;43.35;100750.81;4995492;28;19914;-95
2022/12/28 04:31:50;;;;;;;;;;;;;;;11.54;42.63;100752.50;4996052;28;20383;-96
2022/12/28 04:34:16;;;;;;;;;;;;;;;11.55;42.36;100763.06;4994641;28;19913;-95
2022/12/28 04:36:42;;;;;;;;;;;;;;;11.52;42.53;100771.00;4994735;28;19921;-96
2022/12/28 04:42:10;;;;;;;;;;;;;;;11.26;43.37;100766.66;4980818;28;20402;-92
2022/12/28 04:44:36;;;;;;;;;;;;;;;11.33;43.54;100764.00;5026356;28;19969;-92
2022/12/28 04:47:02;;;;;;;;;;;;;;;11.47;43.27;100768.38;4994884;28;20292;-93
2022/12/28 04:49:28;;;;;;;;;;;;;;;11.53;43.10;100770.13;4995202;28;19913;-94
2022/12/28 04:51:53;;;;;;;;;;;;;;;11.73;42.35;100777.16;5009574;28;19925;-93
2022/12/28 04:54:18;;;;;;;;;;;;;;;11.90;42.13;100777.09;4994238;28;20064;-92
2022/12/28 04:56:43;;;;;;;;;;;;;;;11.84;43.95;100775.34;4992996;28;19921;-93
2022/12/28 04:59:09;;;;;;;;;;;;;;;11.36;45.32;100772.78;4995474;28;19914;-94
2022/12/28 05:01:35;;;;;;;;;;;;;;;11.09;46.42;100782.50;4993018;28;19940;-91
2022/12/28 05:04:00;;;;;;;;;;;;;;;11.11;47.04;100777.22;4993417;28;20343;-92
2022/12/28 05:06:26;;;;;;;;;;;;;;;11.05;47.46;100790.41;4994787;28;19920;-92
2022/12/28 05:08:52;;;;;;;;;;;;;;;11.06;47.54;100789.53;4995270;28;19925;-95
2022/12/28 05:11:21;;;;;;;;;;;;;;;10.94;48.22;100790.41;4993464;28;20008;-94
2022/12/28 05:13:49;;;;;;;;;;;;;;;10.63;48.72;100795.66;4994863;28;19913;-94
2022/12/28 05:16:15;;;;;;;;;;;;;;;10.32;48.77;100792.88;5009605;28;19914;-93
2022/12/28 05:18:41;;;;;;;;;;;;;;;10.14;49.51;100793.69;4993401;28;20422;-93
2022/12/28 05:21:09;;;;;;;;;;;;;;;10.19;49.45;100802.50;4993042;28;19914;-91
2022/12/28 05:26:38;;;;;;;;;;;;;;;10.08;50.14;100812.09;4994119;28;20392;-94
2022/12/28 05:32:06;;;;;;;;;;;;;;;9.67;51.39;100818.03;4994838;28;19920;-96
2022/12/28 05:34:32;;;;;;;;;;;;;;;9.20;52.73;100832.59;4997959;28;19909;-94
2022/12/28 05:36:57;;;;;;;;;;;;;;;9.24;53.50;100825.63;4993784;28;19964;-94
2022/12/28 05:39:23;;;;;;;;;;;;;;;9.27;53.89;100829.16;4992547;28;19914;-92
2022/12/28 05:44:58;;;;;;;;;;;;;;;9.53;54.33;100835.47;4980418;28;20411;-92
2022/12/28 05:47:23;;;;;;;;;;;;;;;9.78;53.58;100833.91;4993673;28;19917;-90
2022/12/28 05:49:48;;;;;;;;;;;;;;;9.75;54.02;100837.41;4993852;28;19913;-91
2022/12/28 05:52:14;;;;;;;;;;;;;;;9.52;54.81;100846.91;4993882;28;19914;-90
2022/12/28 05:57:49;;;;;;;;;;;;;;;9.27;56.71;100854.59;4993862;28;19976;-91
2022/12/28 06:00:15;;;;;;;;;;;;;;;9.14;57.42;100853.59;4993123;28;19960;-91
2022/12/28 06:02:40;;;;;;;;;;;;;;;9.24;58.30;100860.72;4993877;28;19914;-92
2022/12/28 06:05:06;;;;;;;;;;;;;;;9.31;58.40;100856.38;4992037;28;19914;-92
2022/12/28 06:07:31;;;;;;;;;;;;;;;9.50;57.76;100853.03;4993812;28;20327;-92
2022/12/28 06:09:56;;;;;;;;;;;;;;;9.50;57.58;100855.66;4992152;28;19914;-93
2022/12/28 06:12:21;;;;;;;;;;;;;;;9.37;58.27;100859.06;4993809;28;19921;-93
2022/12/28 06:14:47;;;;;;;;;;;;;;;9.72;57.71;100852.31;5024673;28;19941;-92
2022/12/28 06:17:12;;;;;;;;;;;;;;;9.80;57.17;100853.25;4993587;28;19914;-89
2022/12/28 06:19:37;;;;;;;;;;;;;;;9.81;56.91;100855.91;5008267;28;20105;-92
2022/12/28 06:25:06;;;;;;;;;;;;;;;9.66;57.08;100858.41;4993645;28;19917;-91
2022/12/28 06:30:34;;;;;;;;;;;;;;;9.53;58.24;100865.38;4993552;28;19921;-90
2022/12/28 06:32:59;;;;;;;;;;;;;;;9.47;57.80;100866.19;4992880;28;20291;-91
2022/12/28 06:35:24;;;;;;;;;;;;;;;9.53;57.97;100864.47;4997146;28;19977;-91
2022/12/28 06:37:50;;;;;;;;;;;;;;;9.63;58.03;100871.56;4998099;28;19964;-88
2022/12/28 06:43:18;;;;;;;;;;;;;;;9.67;57.85;100874.25;4997298;28;19960;-94
2022/12/28 06:48:46;;;;;;;;;;;;;;;9.51;58.97;100874.97;4998035;28;19932;-94
2022/12/28 06:51:12;;;;;;;;;;;;;;;9.66;57.79;100877.75;4997284;28;19914;-94
2022/12/28 06:53:37;;;;;;;;;;;;;;;9.55;58.56;100868.88;4996423;28;20295;-96
2022/12/28 06:56:04;;;;;;;;;;;;;;;9.47;59.23;100867.94;5012911;28;19936;-94
2022/12/28 06:58:30;;;;;;;;;;;;;;;9.55;59.89;100870.66;5011788;28;20005;-91
2022/12/28 07:00:56;;;;;;;;;;;;;;;9.61;59.65;100868.06;4997820;28;19914;-95
2022/12/28 07:03:22;;;;;;;;;;;;;;;9.73;58.69;100867.25;4996932;28;19913;-95
2022/12/28 07:05:47;;;;;;;;;;;;;;;9.81;58.14;100863.81;4995712;28;19913;-96
2022/12/28 07:08:13;;;;;;;;;;;;;;;9.73;57.82;100868.16;4996295;28;19921;-95
2022/12/28 07:10:38;;;;;;;;;;;;;;;9.60;58.83;100879.44;4998188;28;19924;-95
2022/12/28 07:13:05;;;;;;;;;;;;;;;9.75;58.77;100884.84;4997393;28;19913;-93
2022/12/28 07:15:30;;;;;;;;;;;;;;;9.79;58.71;100877.81;4996914;28;19921;-92
2022/12/28 07:17:56;;;;;;;;;;;;;;;9.86;59.09;100887.56;4997517;28;19914;-96
2022/12/28 07:26:29;;;;;;;;;;;;;;;10.47;57.17;100900.25;4992144;28;19920;-90
2022/12/28 07:28:55;;;;;;;;;;;;;;;10.49;56.92;100906.41;4996600;28;19936;-96
2022/12/28 07:31:22;;;;;;;;;;;;;;;10.58;57.02;100902.91;5011395;28;19914;-96
2022/12/28 07:36:50;;;;;;;;;;;;;;;10.57;57.49;100917.88;4991806;28;19921;-93
2022/12/28 07:39:15;;;;;;;;;;;;;;;10.73;57.38;100917.94;4980708;28;19914;-88
2022/12/28 07:41:41;;;;;;;;;;;;;;;10.84;56.89;100925.88;4994862;28;19936;-95
2022/12/28 07:44:06;;;;;;;;;;;;;;;10.97;56.29;100924.16;5012461;28;19957;-94
2022/12/28 07:46:33;;;;;;;;;;;;;;;11.05;55.85;100936.53;4997005;28;19913;-94
2022/12/28 07:49:02;;;;;;;;;;;;;;;11.00;55.84;100940.00;5011410;28;19989;-95
2022/12/28 07:51:28;;;;;;;;;;;;;;;11.04;56.38;100945.31;4993008;28;19914;-96
2022/12/28 07:53:54;;;;;;;;;;;;;;;10.99;56.62;100946.19;4991799;28;20399;-95
2022/12/28 07:56:22;;;;;;;;;;;;;;;10.88;57.71;100954.06;5009788;28;19914;-95
2022/12/28 07:58:50;;;;;;;;;;;;;;;10.97;57.67;100964.66;4992157;28;19921;-96
2022/12/28 08:04:18;;;;;;;;;;;;;;;10.89;57.11;100956.72;4974901;28;20427;-93
2022/12/28 08:06:44;;;;;;;;;;;;;;;10.79;57.05;100968.09;4975541;28;19950;-95
2022/12/28 08:09:13;;;;;;;;;;;;;;;10.75;56.98;100971.59;4986406;28;19918;-96
2022/12/28 08:14:41;;;;;;;;;;;;;;;10.01;58.89;100971.13;4996363;28;19967;-95
2022/12/28 08:17:09;;;;;;;;;;;;;;;9.95;59.37;100958.78;4995043;28;19914;-96
2022/12/28 08:19:34;;;;;;;;;;;;;;;9.79;58.64;100962.16;4995176;28;19949;-95
2022/12/28 08:22:01;;;;;;;;;;;;;;;9.82;58.58;100960.44;4980287;28;19924;-96
2022/12/28 08:24:27;;;;;;;;;;;;;;;9.65;59.33;100970.84;4999393;28;19952;-96
2022/12/28 08:26:55;;;;;;;;;;;;;;;9.70;60.03;100960.34;5000475;28;19914;-96
2022/12/28 08:29:24;;;;;;;;;;;;;;;9.84;59.92;100963.09;5002013;28;19914;-96
2022/12/28 08:31:50;;;;;;;;;;;;;;;9.73;60.63;100963.00;4999044;28;19917;-96
2022/12/28 08:34:17;;;;;;;;;;;;;;;9.75;59.95;100963.03;5000068;28;19937;-96
2022/12/28 08:36:43;;;;;;;;;;;;;;;9.73;60.25;100965.63;4997206;28;19914;-96
2022/12/28 08:42:13;;;;;;;;;;;;;;;10.01;59.64;100974.66;4996652;28;20294;-96
2022/12/28 08:44:38;;;;;;;;;;;;;;;9.99;59.49;100972.84;4998070;28;20454;-93
2022/12/28 08:47:04;;;;;;;;;;;;;;;10.10;59.68;100976.47;5003270;28;19914;-96
2022/12/28 08:49:30;;;;;;;;;;;;;;;10.11;59.85;100980.84;4998655;28;19914;-96
2022/12/28 08:51:55;;;;;;;;;;;;;;;10.27;58.79;100980.97;4994282;28;19920;-96
2022/12/28 08:54:20;;;;;;;;;;;;;;;10.24;59.53;100973.03;4994268;28;19914;-96
2022/12/28 08:56:46;;;;;;;;;;;;;;;10.08;59.99;100982.59;4994930;28;19914;-96
2022/12/28 08:59:16;;;;;;;;;;;;;;;10.07;61.00;100975.56;4995062;28;20004;-96
2022/12/28 09:01:41;;;;;;;;;;;;;;;9.93;61.07;100984.25;4998016;28;19967;-95
2022/12/28 09:04:10;;;;;;;;;;;;;;;10.00;61.05;100978.16;4994598;28;19917;-96
2022/12/28 09:06:37;;;;;;;;;;;;;;;10.06;61.68;100982.59;4997659;28;20368;-91
2022/12/28 09:09:03;;;;;;;;;;;;;;;10.11;61.72;100983.50;4996887;28;19921;-93
2022/12/28 09:11:33;;;;;;;;;;;;;;;10.39;60.82;100982.00;4997956;28;19918;-96
2022/12/28 09:14:09;;;;;;;;;;;;;;;10.77;59.91;100990.06;5003588;28;19922;-96
2022/12/28 09:16:35;;;;;;;;;;;;;;;10.75;60.07;100992.72;5006489;28;19920;-96
2022/12/28 09:22:03;;;;;;;;;;;;;;;11.04;59.74;100986.69;4999014;28;19916;-96
2022/12/28 09:27:31;;;;;;;;;;;;;;;11.06;60.07;100985.81;5004913;28;20390;-95
2022/12/28 09:29:59;;;;;;;;;;;;;;;10.96;59.30;100981.38;5006626;28;19977;-96
2022/12/28 09:32:24;;;;;;;;;;;;;;;10.74;59.91;100983.91;4997209;28;19913;-93
2022/12/28 09:34:51;;;;;;;;;;;;;;;10.93;59.72;100976.94;4995142;28;19984;-95
2022/12/28 09:40:19;;;;;;;;;;;;;;;11.03;58.69;100980.53;4994737;28;20455;-94
2022/12/28 09:42:44;;;;;;;;;;;;;;;11.18;58.64;100984.09;4994494;28;19941;-91
2022/12/28 09:45:11;;;;;;;;;;;;;;;11.12;58.83;100966.47;4997753;28;19925;-96
2022/12/28 09:50:39;;;;;;;;;;;;;;;11.02;60.42;100962.03;4994400;28;20005;-90
2022/12/28 09:53:25;;;;;;;;;;;;;;;10.90;61.38;100952.31;5010008;28;19953;-96
2022/12/28 09:56:11;;;;;;;;;;;;;;;10.92;62.55;100953.19;4997357;28;19961;-96
2022/12/28 09:58:38;;;;;;;;;;;;;;;10.74;63.52;100949.59;5108503;22;19921;-96
2022/12/28 10:01:08;;;;;;;;;;;;;;;10.75;64.37;100953.13;5013129;28;19924;-94
2022/12/28 10:03:35;;;;;;;;;;;;;;;11.00;63.24;100948.84;5031884;28;19913;-94
2022/12/28 10:06:02;;;;;;;;;;;;;;;11.09;62.29;100946.22;5029550;28;19971;-96
2022/12/28 10:08:29;;;;;;;;;;;;;;;11.27;61.00;100934.81;5018691;28;19913;-96
2022/12/28 10:10:59;;;;;;;;;;;;;;;11.19;61.22;100943.59;5012396;28;19968;-94
2022/12/28 10:13:27;;;;;;;;;;;;;;;11.37;61.83;100938.34;5012764;28;19913;-96
2022/12/28 10:18:56;;;;;;;;;;;;;;;11.21;59.71;100941.84;5013172;28;19967;-94
2022/12/28 10:21:22;;;;;;;;;;;;;;;11.29;59.29;100942.72;5012270;28;19933;-94
2022/12/28 10:23:50;;;;;;;;;;;;;;;11.04;58.87;100947.94;5028192;28;19914;-94
2022/12/28 10:26:16;;;;;;;;;;;;;;;10.68;60.34;100948.72;5028569;28;19967;-91
2022/12/28 10:28:50;;;;;;;;;;;;;;;10.34;60.35;100940.63;5013394;28;19920;-93
2022/12/28 10:31:29;;;;;;;;;;;;;;;10.63;61.32;100946.06;5012291;28;20379;-94
2022/12/28 10:37:03;;;;;;;;;;;;;;;10.55;63.69;100934.56;5013671;28;19915;-90
2022/12/28 10:39:30;;;;;;;;;;;;;;;10.25;63.45;100941.41;5012680;28;19913;-89
2022/12/28 10:41:57;;;;;;;;;;;;;;;10.31;62.39;100940.56;5028308;28;20371;-93
2022/12/28 10:47:30;;;;;;;;;;;;;;;10.50;62.35;100937.19;5013584;28;19999;-95
2022/12/28 10:49:55;;;;;;;;;;;;;;;10.45;62.06;100933.63;5028500;28;19972;-95
2022/12/28 10:52:21;;;;;;;;;;;;;;;10.36;62.51;100930.94;5028852;28;19980;-96
2022/12/28 10:54:47;;;;;;;;;;;;;;;10.28;62.30;100930.88;5011358;28;20454;-93
2022/12/28 10:57:39;;;;;;;;;;;;;;;10.22;62.26;100933.47;5011244;28;19956;-93
2022/12/28 11:00:15;;;;;;;;;;;;;;;10.48;62.15;100932.78;5010708;28;20064;-92
2022/12/28 11:02:40;;;;;;;;;;;;;;;10.15;62.91;100927.28;5003458;28;19925;-92
2022/12/28 11:05:05;;;;;;;;;;;;;;;10.23;63.27;100923.81;5006671;28;20300;-91
2022/12/28 11:07:30;;;;;;;;;;;;;;;10.43;64.22;100921.34;4993528;28;19914;-93
2022/12/28 11:10:23;;;;;;;;;;;;;;;10.34;64.50;100917.75;4992707;28;19960;-96
2022/12/28 11:12:50;;;;;;;;;;;;;;;10.41;64.16;100912.50;5007540;28;19913;-95
2022/12/28 11:15:16;;;;;;;;;;;;;;;10.36;64.29;100917.75;5008263;28;19913;-94
2022/12/28 11:17:42;;;;;;;;;;;;;;;10.61;64.19;100923.16;4973074;28;20522;-96
2022/12/28 11:20:15;;;;;;;;;;;;;;;10.57;63.31;100917.00;4991679;28;19914;-94
2022/12/28 11:22:40;;;;;;;;;;;;;;;10.55;64.02;100924.00;5008699;28;19964;-94
2022/12/28 11:25:06;;;;;;;;;;;;;;;10.58;63.86;100924.00;5011106;28;20332;-95
2022/12/28 11:27:33;;;;;;;;;;;;;;;10.61;62.52;100917.88;4996856;28;19988;-95
2022/12/28 11:29:58;;;;;;;;;;;;;;;10.56;63.70;100912.59;5009697;28;20376;-94
2022/12/28 11:32:36;;;;;;;;;;;;;;;10.69;63.04;100914.41;4994967;28;19913;-93
2022/12/28 11:35:01;;;;;;;;;;;;;;;10.93;62.82;100921.50;5011307;28;19956;-94
2022/12/28 11:37:27;;;;;;;;;;;;;;;11.05;62.37;100918.03;5013840;28;20355;-92
2022/12/28 11:39:52;;;;;;;;;;;;;;;11.19;60.94;100917.19;5009937;28;19917;-92
2022/12/28 11:42:47;;;;;;;;;;;;;;;10.97;58.09;100925.06;5011332;28;19914;-89
2022/12/28 11:45:13;;;;;;;;;;;;;;;11.17;58.57;100927.75;4982665;28;20315;-95
2022/12/28 11:47:39;;;;;;;;;;;;;;;10.97;58.89;100932.09;5016914;28;19920;-93
2022/12/28 11:50:23;;;;;;;;;;;;;;;11.04;58.87;100918.91;5015105;28;20435;-94
2022/12/28 11:52:49;;;;;;;;;;;;;;;10.89;57.07;100911.84;5016874;28;19913;-93
2022/12/28 11:55:21;;;;;;;;;;;;;;;10.83;57.67;100917.09;5017086;28;20489;-95
2022/12/28 12:00:50;;;;;;;;;;;;;;;11.03;57.73;100914.53;5001017;28;20007;-90
2022/12/28 12:06:44;;;;;;;;;;;;;;;11.17;57.53;100918.94;5018909;28;20291;-96
2022/12/28 12:09:19;;;;;;;;;;;;;;;11.45;57.07;100914.59;4998714;28;19914;-95
2022/12/28 12:14:49;;;;;;;;;;;;;;;11.60;56.83;100906.66;5017491;28;19916;-95
2022/12/28 12:17:20;;;;;;;;;;;;;;;11.88;56.91;100905.75;5015685;28;20008;-93
2022/12/28 12:19:46;;;;;;;;;;;;;;;11.78;56.71;100905.75;5015539;28;19917;-93
2022/12/28 12:25:20;;;;;;;;;;;;;;;12.08;56.29;100900.47;5016706;28;19960;-94
2022/12/28 12:28:06;;;;;;;;;;;;;;;12.25;55.35;100897.78;5033207;28;19917;-94
2022/12/28 12:30:31;;;;;;;;;;;;;;;12.00;54.42;100901.38;5030765;28;19913;-95
2022/12/28 12:36:04;;;;;;;;;;;;;;;11.83;54.44;100890.81;5015897;28;19916;-93
2022/12/28 12:38:39;;;;;;;;;;;;;;;11.78;54.64;100891.69;5017536;28;19919;-93
2022/12/28 12:41:04;;;;;;;;;;;;;;;11.74;56.37;100895.19;5030989;28;20299;-92
2022/12/28 12:46:36;;;;;;;;;;;;;;;11.55;58.23;100889.91;5015405;28;19916;-88
2022/12/28 12:49:20;;;;;;;;;;;;;;;11.70;58.55;100896.09;5014764;28;19914;-93
2022/12/28 12:51:48;;;;;;;;;;;;;;;11.78;58.32;100886.38;5013022;28;19924;-88
2022/12/28 12:54:32;;;;;;;;;;;;;;;11.57;59.09;100898.75;5014004;28;19972;-88
2022/12/28 13:00:03;;;;;;;;;;;;;;;11.41;59.94;100892.56;5013962;28;19967;-91
2022/12/28 13:02:34;;;;;;;;;;;;;;;11.46;60.84;100893.47;5014281;28;19921;-91
2022/12/28 13:05:01;;;;;;;;;;;;;;;11.69;60.22;100899.63;5014549;28;19920;-92
2022/12/28 13:10:33;;;;;;;;;;;;;;;11.41;61.11;100903.13;5014287;28;20295;-93
2022/12/28 13:12:59;;;;;;;;;;;;;;;11.10;62.18;100904.84;5029615;28;20023;-93
2022/12/28 13:15:25;;;;;;;;;;;;;;;11.23;62.78;100896.06;5029273;28;19914;-91
2022/12/28 13:18:16;;;;;;;;;;;;;;;11.20;62.59;100900.44;5014194;28;20004;-91
2022/12/28 13:20:51;;;;;;;;;;;;;;;11.27;63.16;100894.31;5011618;28;19956;-91
2022/12/28 13:23:16;;;;;;;;;;;;;;;10.92;63.05;100900.38;5014643;28;19913;-92
2022/12/28 13:25:46;;;;;;;;;;;;;;;11.13;62.80;100903.97;5028921;28;20459;-91
2022/12/28 13:28:21;;;;;;;;;;;;;;;11.25;62.21;100906.66;5014990;28;19913;-93
2022/12/28 13:33:56;;;;;;;;;;;;;;;10.74;63.38;100904.75;5014107;28;20028;-91
2022/12/28 13:36:22;;;;;;;;;;;;;;;10.90;63.29;100910.94;5015070;28;19920;-93
2022/12/28 13:38:58;;;;;;;;;;;;;;;10.94;62.77;100906.56;5012717;28;19925;-92
2022/12/28 13:41:24;;;;;;;;;;;;;;;10.87;63.54;100904.78;5012129;28;20059;-92
2022/12/28 13:43:49;;;;;;;;;;;;;;;10.77;63.46;100911.81;5028255;28;19913;-91
2022/12/28 13:46:16;;;;;;;;;;;;;;;10.81;63.79;100910.03;5012863;28;19923;-90
2022/12/28 13:48:45;;;;;;;;;;;;;;;10.82;64.40;100903.91;5014708;28;19918;-91
2022/12/28 13:51:13;;;;;;;;;;;;;;;10.58;65.41;100913.47;5028671;28;19914;-92
2022/12/28 13:53:40;;;;;;;;;;;;;;;10.68;64.60;100914.41;5028158;28;20012;-89
2022/12/28 13:59:11;;;;;;;;;;;;;;;10.68;65.09;100919.69;5013140;28;20026;-88
2022/12/28 14:04:52;;;;;;;;;;;;;;;10.74;65.22;100917.06;5013175;28;19987;-94
2022/12/28 14:07:18;;;;;;;;;;;;;;;10.65;63.85;100915.25;5013067;28;20410;-93
2022/12/28 14:09:44;;;;;;;;;;;;;;;10.74;64.15;100917.06;5028248;28;20047;-91
2022/12/28 14:12:11;;;;;;;;;;;;;;;10.85;63.86;100923.25;5013391;28;19964;-92
2022/12/28 14:14:37;;;;;;;;;;;;;;;10.63;64.18;100910.84;5012774;28;19919;-96
2022/12/28 14:17:02;;;;;;;;;;;;;;;10.31;65.11;100912.44;5027600;28;19914;-94
2022/12/28 14:19:28;;;;;;;;;;;;;;;10.33;64.13;100918.66;5013290;28;19913;-92
2022/12/28 14:21:53;;;;;;;;;;;;;;;10.13;64.74;100910.59;5013536;28;19913;-93
2022/12/28 14:24:20;;;;;;;;;;;;;;;10.15;64.44;100914.09;5029148;28;19954;-93
2022/12/28 14:26:48;;;;;;;;;;;;;;;9.93;65.39;100918.38;5013931;28;19917;-94
2022/12/28 14:29:27;;;;;;;;;;;;;;;9.76;64.88;100914.69;5013416;28;19917;-90
2022/12/28 14:32:01;;;;;;;;;;;;;;;10.03;65.08;100914.03;5011570;28;20315;-89
2022/12/28 14:34:28;;;;;;;;;;;;;;;10.09;64.79;100918.47;5012573;28;19914;-91
2022/12/28 14:36:54;;;;;;;;;;;;;;;10.28;63.87;100917.69;5012989;28;19920;-92
2022/12/28 14:39:22;;;;;;;;;;;;;;;10.17;64.21;100916.75;5013840;28;19914;-93
2022/12/28 14:41:48;;;;;;;;;;;;;;;10.10;63.83;100923.75;5012368;28;20004;-92
2022/12/28 14:44:15;;;;;;;;;;;;;;;10.00;63.95;100920.16;5027958;28;19991;-90
2022/12/28 14:46:41;;;;;;;;;;;;;;;9.85;64.40;100915.66;5014837;28;19914;-92
2022/12/28 14:49:25;;;;;;;;;;;;;;;9.75;64.55;100916.47;5016897;28;19914;-94
2022/12/28 14:51:50;;;;;;;;;;;;;;;9.78;64.24;100919.13;5013609;28;20004;-96
2022/12/28 14:54:21;;;;;;;;;;;;;;;9.72;64.39;100912.94;5035380;28;19962;-96
2022/12/28 14:56:49;;;;;;;;;;;;;;;9.59;64.84;100915.47;5030606;28;19956;-94
2022/12/28 14:59:26;;;;;;;;;;;;;;;9.63;64.40;100911.09;5031397;28;19917;-88
2022/12/28 15:01:51;;;;;;;;;;;;;;;9.63;64.57;100913.72;5014830;28;19947;-87
2022/12/28 15:04:44;;;;;;;;;;;;;;;9.61;64.40;100916.34;5016914;28;19924;-86
2022/12/28 15:10:12;;;;;;;;;;;;;;;9.50;64.46;100910.97;5016206;28;19936;-86
2022/12/28 15:12:37;;;;;;;;;;;;;;;9.57;64.11;100903.13;5016292;28;20352;-87
2022/12/28 15:15:02;;;;;;;;;;;;;;;9.64;63.70;100913.75;5016187;28;20004;-89
2022/12/28 15:20:31;;;;;;;;;;;;;;;9.39;64.00;100914.38;5016910;28;20004;-87
2022/12/28 15:26:04;;;;;;;;;;;;;;;9.38;63.45;100921.41;5016284;28;19915;-87
2022/12/28 15:28:29;;;;;;;;;;;;;;;9.46;63.27;100922.34;5015973;28;20376;-87
2022/12/28 15:30:54;;;;;;;;;;;;;;;9.53;62.88;100922.41;5015568;28;20010;-85
2022/12/28 15:36:23;;;;;;;;;;;;;;;8.96;64.02;100931.50;5014937;28;19916;-88